sensor_id;sensor_type;location;lat;lon;timestamp;P1;durP1;ratioP1;P2;durP2;ratioP2
29314;SDS011;16320;53.954;9.506;2023-09-08T00:01:09;11.85;;;9.75;;
29314;SDS011;16320;53.954;9.506;2023-09-08T00:04:14;19.73;;;9.88;;
29314;SDS011;16320;53.954;9.506;2023-09-08T00:07:19;13.13;;;9.38;;
29314;SDS011;16320;53.954;9.506;2023-09-08T00:10:24;14.93;;;9.60;;
29314;SDS011;16320;53.954;9.506;2023-09-08T00:13:28;14.45;;;10.05;;
29314;SDS011;16320;53.954;9.506;2023-09-08T00:16:33;13.07;;;10.65;;
29314;SDS011;16320;53.954;9.506;2023-09-08T00:19:37;13.73;;;10.85;;
29314;SDS011;16320;53.954;9.506;2023-09-08T00:22:42;13.00;;;10.65;;
29314;SDS011;16320;53.954;9.506;2023-09-08T00:25:46;14.10;;;9.80;;
29314;SDS011;16320;53.954;9.506;2023-09-08T00:28:53;11.65;;;9.20;;
29314;SDS011;16320;53.954;9.506;2023-09-08T00:31:58;13.30;;;10.10;;
29314;SDS011;16320;53.954;9.506;2023-09-08T00:35:02;12.82;;;9.68;;
29314;SDS011;16320;53.954;9.506;2023-09-08T00:38:10;15.15;;;9.73;;
29314;SDS011;16320;53.954;9.506;2023-09-08T00:41:14;15.90;;;10.43;;
29314;SDS011;16320;53.954;9.506;2023-09-08T00:44:19;15.07;;;10.07;;
29314;SDS011;16320;53.954;9.506;2023-09-08T00:47:24;12.27;;;9.88;;
29314;SDS011;16320;53.954;9.506;2023-09-08T00:50:28;17.45;;;10.10;;
29314;SDS011;16320;53.954;9.506;2023-09-08T00:53:33;11.25;;;9.05;;
29314;SDS011;16320;53.954;9.506;2023-09-08T00:56:38;11.80;;;9.68;;
29314;SDS011;16320;53.954;9.506;2023-09-08T00:59:42;10.18;;;8.77;;
29314;SDS011;16320;53.954;9.506;2023-09-08T01:02:48;13.63;;;9.15;;
29314;SDS011;16320;53.954;9.506;2023-09-08T01:05:52;11.68;;;9.57;;
29314;SDS011;16320;53.954;9.506;2023-09-08T01:08:58;12.05;;;8.27;;
29314;SDS011;16320;53.954;9.506;2023-09-08T01:12:04;12.45;;;8.30;;
29314;SDS011;16320;53.954;9.506;2023-09-08T01:15:10;11.32;;;8.40;;
29314;SDS011;16320;53.954;9.506;2023-09-08T01:18:15;11.93;;;8.27;;
29314;SDS011;16320;53.954;9.506;2023-09-08T01:28:16;11.93;;;9.13;;
29314;SDS011;16320;53.954;9.506;2023-09-08T01:31:22;14.38;;;8.45;;
29314;SDS011;16320;53.954;9.506;2023-09-08T01:34:27;13.27;;;9.30;;
29314;SDS011;16320;53.954;9.506;2023-09-08T01:37:31;13.00;;;8.60;;
29314;SDS011;16320;53.954;9.506;2023-09-08T01:40:36;14.93;;;9.73;;
29314;SDS011;16320;53.954;9.506;2023-09-08T01:43:40;10.20;;;8.25;;
29314;SDS011;16320;53.954;9.506;2023-09-08T01:46:45;14.38;;;8.63;;
29314;SDS011;16320;53.954;9.506;2023-09-08T01:49:49;10.45;;;8.02;;
29314;SDS011;16320;53.954;9.506;2023-09-08T01:52:54;11.35;;;8.50;;
29314;SDS011;16320;53.954;9.506;2023-09-08T01:55:58;10.20;;;7.97;;
29314;SDS011;16320;53.954;9.506;2023-09-08T01:59:03;10.88;;;7.75;;
29314;SDS011;16320;53.954;9.506;2023-09-08T02:02:08;14.32;;;7.90;;
29314;SDS011;16320;53.954;9.506;2023-09-08T02:05:13;12.18;;;8.60;;
29314;SDS011;16320;53.954;9.506;2023-09-08T02:08:19;9.82;;;8.20;;
29314;SDS011;16320;53.954;9.506;2023-09-08T02:11:23;11.55;;;9.07;;
29314;SDS011;16320;53.954;9.506;2023-09-08T02:17:31;9.45;;;8.13;;
29314;SDS011;16320;53.954;9.506;2023-09-08T02:20:36;14.32;;;8.88;;
29314;SDS011;16320;53.954;9.506;2023-09-08T02:23:40;11.82;;;8.35;;
29314;SDS011;16320;53.954;9.506;2023-09-08T02:26:45;11.30;;;7.93;;
29314;SDS011;16320;53.954;9.506;2023-09-08T02:29:50;10.20;;;8.50;;
29314;SDS011;16320;53.954;9.506;2023-09-08T02:32:55;9.07;;;8.05;;
29314;SDS011;16320;53.954;9.506;2023-09-08T02:36:04;14.40;;;8.52;;
29314;SDS011;16320;53.954;9.506;2023-09-08T02:39:09;10.20;;;8.18;;
29314;SDS011;16320;53.954;9.506;2023-09-08T02:42:14;11.40;;;8.32;;
29314;SDS011;16320;53.954;9.506;2023-09-08T02:45:19;13.70;;;8.98;;
29314;SDS011;16320;53.954;9.506;2023-09-08T02:48:24;13.10;;;8.43;;
29314;SDS011;16320;53.954;9.506;2023-09-08T02:51:29;10.07;;;8.48;;
29314;SDS011;16320;53.954;9.506;2023-09-08T02:54:33;11.50;;;8.82;;
29314;SDS011;16320;53.954;9.506;2023-09-08T02:57:38;11.60;;;8.32;;
29314;SDS011;16320;53.954;9.506;2023-09-08T03:00:43;13.68;;;9.68;;
29314;SDS011;16320;53.954;9.506;2023-09-08T03:03:48;13.82;;;9.32;;
29314;SDS011;16320;53.954;9.506;2023-09-08T03:06:53;13.73;;;8.70;;
29314;SDS011;16320;53.954;9.506;2023-09-08T03:09:57;15.20;;;8.77;;
29314;SDS011;16320;53.954;9.506;2023-09-08T03:13:02;13.68;;;8.50;;
29314;SDS011;16320;53.954;9.506;2023-09-08T03:16:08;10.88;;;9.05;;
29314;SDS011;16320;53.954;9.506;2023-09-08T03:19:13;13.45;;;8.93;;
29314;SDS011;16320;53.954;9.506;2023-09-08T03:22:18;17.63;;;9.63;;
29314;SDS011;16320;53.954;9.506;2023-09-08T03:25:22;13.93;;;9.75;;
29314;SDS011;16320;53.954;9.506;2023-09-08T03:28:27;11.85;;;8.77;;
29314;SDS011;16320;53.954;9.506;2023-09-08T03:31:31;10.27;;;8.18;;
29314;SDS011;16320;53.954;9.506;2023-09-08T03:34:36;10.15;;;8.30;;
29314;SDS011;16320;53.954;9.506;2023-09-08T03:37:43;13.05;;;9.75;;
29314;SDS011;16320;53.954;9.506;2023-09-08T03:40:48;12.55;;;8.73;;
29314;SDS011;16320;53.954;9.506;2023-09-08T03:43:53;10.77;;;8.73;;
29314;SDS011;16320;53.954;9.506;2023-09-08T03:46:57;10.90;;;8.73;;
29314;SDS011;16320;53.954;9.506;2023-09-08T03:50:04;14.43;;;9.05;;
29314;SDS011;16320;53.954;9.506;2023-09-08T03:53:09;13.18;;;9.45;;
29314;SDS011;16320;53.954;9.506;2023-09-08T03:56:15;11.05;;;8.70;;
29314;SDS011;16320;53.954;9.506;2023-09-08T03:59:20;15.38;;;9.30;;
29314;SDS011;16320;53.954;9.506;2023-09-08T04:02:25;11.73;;;8.60;;
29314;SDS011;16320;53.954;9.506;2023-09-08T04:05:29;11.80;;;8.68;;
29314;SDS011;16320;53.954;9.506;2023-09-08T04:08:34;13.73;;;9.43;;
29314;SDS011;16320;53.954;9.506;2023-09-08T04:11:38;12.48;;;9.50;;
29314;SDS011;16320;53.954;9.506;2023-09-08T04:14:42;12.40;;;9.35;;
29314;SDS011;16320;53.954;9.506;2023-09-08T04:17:47;12.88;;;10.02;;
29314;SDS011;16320;53.954;9.506;2023-09-08T04:20:52;13.82;;;9.93;;
29314;SDS011;16320;53.954;9.506;2023-09-08T04:23:56;13.18;;;9.25;;
29314;SDS011;16320;53.954;9.506;2023-09-08T04:27:01;11.70;;;8.88;;
29314;SDS011;16320;53.954;9.506;2023-09-08T04:30:05;14.10;;;9.48;;
29314;SDS011;16320;53.954;9.506;2023-09-08T04:33:10;13.32;;;9.60;;
29314;SDS011;16320;53.954;9.506;2023-09-08T04:36:17;11.30;;;9.05;;
29314;SDS011;16320;53.954;9.506;2023-09-08T04:39:21;14.00;;;9.35;;
29314;SDS011;16320;53.954;9.506;2023-09-08T04:42:26;12.43;;;8.77;;
29314;SDS011;16320;53.954;9.506;2023-09-08T04:45:31;11.00;;;8.82;;
29314;SDS011;16320;53.954;9.506;2023-09-08T04:48:35;10.13;;;8.75;;
29314;SDS011;16320;53.954;9.506;2023-09-08T04:51:43;15.02;;;10.23;;
29314;SDS011;16320;53.954;9.506;2023-09-08T04:54:48;15.57;;;9.10;;
29314;SDS011;16320;53.954;9.506;2023-09-08T04:57:53;10.55;;;9.18;;
29314;SDS011;16320;53.954;9.506;2023-09-08T05:00:57;14.10;;;9.80;;
29314;SDS011;16320;53.954;9.506;2023-09-08T05:04:02;13.43;;;9.43;;
29314;SDS011;16320;53.954;9.506;2023-09-08T05:07:08;11.73;;;9.23;;
29314;SDS011;16320;53.954;9.506;2023-09-08T05:10:13;12.60;;;10.50;;
29314;SDS011;16320;53.954;9.506;2023-09-08T05:13:18;12.25;;;9.27;;
29314;SDS011;16320;53.954;9.506;2023-09-08T05:16:34;13.90;;;10.00;;
29314;SDS011;16320;53.954;9.506;2023-09-08T05:19:49;11.10;;;9.68;;
29314;SDS011;16320;53.954;9.506;2023-09-08T05:22:54;13.15;;;10.23;;
29314;SDS011;16320;53.954;9.506;2023-09-08T05:25:58;13.70;;;9.13;;
29314;SDS011;16320;53.954;9.506;2023-09-08T05:29:04;13.80;;;9.63;;
29314;SDS011;16320;53.954;9.506;2023-09-08T05:32:08;15.45;;;10.35;;
29314;SDS011;16320;53.954;9.506;2023-09-08T05:35:13;13.88;;;9.45;;
29314;SDS011;16320;53.954;9.506;2023-09-08T05:38:18;13.77;;;9.55;;
29314;SDS011;16320;53.954;9.506;2023-09-08T05:41:22;12.48;;;10.45;;
29314;SDS011;16320;53.954;9.506;2023-09-08T05:44:27;14.38;;;10.27;;
29314;SDS011;16320;53.954;9.506;2023-09-08T05:47:31;16.65;;;10.48;;
29314;SDS011;16320;53.954;9.506;2023-09-08T05:50:36;21.13;;;9.63;;
29314;SDS011;16320;53.954;9.506;2023-09-08T05:53:41;13.27;;;9.63;;
29314;SDS011;16320;53.954;9.506;2023-09-08T05:56:45;13.95;;;9.55;;
29314;SDS011;16320;53.954;9.506;2023-09-08T05:59:50;11.30;;;9.23;;
29314;SDS011;16320;53.954;9.506;2023-09-08T06:02:54;15.85;;;9.18;;
29314;SDS011;16320;53.954;9.506;2023-09-08T06:05:59;10.20;;;8.50;;
29314;SDS011;16320;53.954;9.506;2023-09-08T06:09:04;11.85;;;8.95;;
29314;SDS011;16320;53.954;9.506;2023-09-08T06:12:11;12.48;;;9.32;;
29314;SDS011;16320;53.954;9.506;2023-09-08T06:15:16;14.30;;;9.77;;
29314;SDS011;16320;53.954;9.506;2023-09-08T06:18:21;14.30;;;9.57;;
29314;SDS011;16320;53.954;9.506;2023-09-08T06:21:25;13.40;;;9.95;;
29314;SDS011;16320;53.954;9.506;2023-09-08T06:24:29;19.63;;;10.25;;
29314;SDS011;16320;53.954;9.506;2023-09-08T06:27:34;15.38;;;9.13;;
29314;SDS011;16320;53.954;9.506;2023-09-08T06:30:38;12.30;;;9.60;;
29314;SDS011;16320;53.954;9.506;2023-09-08T06:33:45;19.40;;;10.45;;
29314;SDS011;16320;53.954;9.506;2023-09-08T06:36:50;13.52;;;9.40;;
29314;SDS011;16320;53.954;9.506;2023-09-08T06:39:54;15.07;;;9.27;;
29314;SDS011;16320;53.954;9.506;2023-09-08T06:42:59;11.05;;;8.93;;
29314;SDS011;16320;53.954;9.506;2023-09-08T06:46:06;12.50;;;9.25;;
29314;SDS011;16320;53.954;9.506;2023-09-08T06:49:11;12.15;;;9.10;;
29314;SDS011;16320;53.954;9.506;2023-09-08T06:52:16;14.65;;;10.52;;
29314;SDS011;16320;53.954;9.506;2023-09-08T06:55:21;14.85;;;8.80;;
29314;SDS011;16320;53.954;9.506;2023-09-08T06:58:26;10.57;;;7.75;;
29314;SDS011;16320;53.954;9.506;2023-09-08T07:01:31;11.20;;;8.55;;
29314;SDS011;16320;53.954;9.506;2023-09-08T07:04:36;13.38;;;8.60;;
29314;SDS011;16320;53.954;9.506;2023-09-08T07:07:40;13.50;;;8.98;;
29314;SDS011;16320;53.954;9.506;2023-09-08T07:10:51;10.77;;;8.52;;
29314;SDS011;16320;53.954;9.506;2023-09-08T07:13:57;11.00;;;8.77;;
29314;SDS011;16320;53.954;9.506;2023-09-08T07:17:01;11.95;;;8.95;;
29314;SDS011;16320;53.954;9.506;2023-09-08T07:20:07;12.32;;;8.52;;
29314;SDS011;16320;53.954;9.506;2023-09-08T07:23:12;11.25;;;9.27;;
29314;SDS011;16320;53.954;9.506;2023-09-08T07:26:17;14.77;;;8.75;;
29314;SDS011;16320;53.954;9.506;2023-09-08T07:29:21;17.33;;;9.52;;
29314;SDS011;16320;53.954;9.506;2023-09-08T07:32:26;13.40;;;8.63;;
29314;SDS011;16320;53.954;9.506;2023-09-08T07:35:31;11.52;;;8.65;;
29314;SDS011;16320;53.954;9.506;2023-09-08T07:38:36;9.77;;;7.10;;
29314;SDS011;16320;53.954;9.506;2023-09-08T07:41:40;11.18;;;8.50;;
29314;SDS011;16320;53.954;9.506;2023-09-08T07:44:45;12.27;;;9.00;;
29314;SDS011;16320;53.954;9.506;2023-09-08T07:47:49;9.43;;;7.40;;
29314;SDS011;16320;53.954;9.506;2023-09-08T07:50:54;10.02;;;7.63;;
29314;SDS011;16320;53.954;9.506;2023-09-08T07:53:58;12.43;;;9.25;;
29314;SDS011;16320;53.954;9.506;2023-09-08T07:57:02;11.50;;;7.82;;
29314;SDS011;16320;53.954;9.506;2023-09-08T08:00:07;13.27;;;8.35;;
29314;SDS011;16320;53.954;9.506;2023-09-08T08:03:15;11.30;;;8.82;;
29314;SDS011;16320;53.954;9.506;2023-09-08T08:06:20;9.25;;;7.85;;
29314;SDS011;16320;53.954;9.506;2023-09-08T08:09:24;14.18;;;8.13;;
29314;SDS011;16320;53.954;9.506;2023-09-08T08:12:29;13.60;;;8.43;;
29314;SDS011;16320;53.954;9.506;2023-09-08T08:15:37;10.57;;;8.02;;
29314;SDS011;16320;53.954;9.506;2023-09-08T08:18:46;14.35;;;8.13;;
29314;SDS011;16320;53.954;9.506;2023-09-08T08:21:50;15.30;;;9.32;;
29314;SDS011;16320;53.954;9.506;2023-09-08T08:24:55;9.88;;;7.50;;
29314;SDS011;16320;53.954;9.506;2023-09-08T08:28:00;14.52;;;9.27;;
29314;SDS011;16320;53.954;9.506;2023-09-08T08:31:05;9.73;;;8.55;;
29314;SDS011;16320;53.954;9.506;2023-09-08T08:34:10;11.23;;;7.60;;
29314;SDS011;16320;53.954;9.506;2023-09-08T08:40:18;7.32;;;6.63;;
29314;SDS011;16320;53.954;9.506;2023-09-08T08:43:23;11.20;;;8.40;;
29314;SDS011;16320;53.954;9.506;2023-09-08T08:46:28;11.68;;;8.55;;
29314;SDS011;16320;53.954;9.506;2023-09-08T08:49:33;11.23;;;8.02;;
29314;SDS011;16320;53.954;9.506;2023-09-08T08:52:39;9.52;;;7.72;;
29314;SDS011;16320;53.954;9.506;2023-09-08T08:55:44;9.35;;;7.85;;
29314;SDS011;16320;53.954;9.506;2023-09-08T08:58:50;11.77;;;8.10;;
29314;SDS011;16320;53.954;9.506;2023-09-08T09:01:54;11.10;;;7.88;;
29314;SDS011;16320;53.954;9.506;2023-09-08T09:05:01;11.20;;;7.60;;
29314;SDS011;16320;53.954;9.506;2023-09-08T09:08:07;9.80;;;7.97;;
29314;SDS011;16320;53.954;9.506;2023-09-08T09:11:13;13.25;;;7.65;;
29314;SDS011;16320;53.954;9.506;2023-09-08T09:14:18;10.77;;;8.00;;
29314;SDS011;16320;53.954;9.506;2023-09-08T09:17:23;10.07;;;7.28;;
29314;SDS011;16320;53.954;9.506;2023-09-08T09:20:27;9.05;;;7.95;;
29314;SDS011;16320;53.954;9.506;2023-09-08T09:23:33;11.57;;;8.05;;
29314;SDS011;16320;53.954;9.506;2023-09-08T09:26:38;11.00;;;8.50;;
29314;SDS011;16320;53.954;9.506;2023-09-08T09:29:47;8.27;;;7.43;;
29314;SDS011;16320;53.954;9.506;2023-09-08T09:33:03;9.13;;;7.25;;
29314;SDS011;16320;53.954;9.506;2023-09-08T09:36:09;9.48;;;7.00;;
29314;SDS011;16320;53.954;9.506;2023-09-08T09:39:24;12.20;;;6.85;;
29314;SDS011;16320;53.954;9.506;2023-09-08T09:42:29;13.07;;;7.68;;
29314;SDS011;16320;53.954;9.506;2023-09-08T09:45:35;8.05;;;7.25;;
29314;SDS011;16320;53.954;9.506;2023-09-08T09:48:41;9.10;;;6.32;;
29314;SDS011;16320;53.954;9.506;2023-09-08T09:51:47;10.40;;;6.60;;
29314;SDS011;16320;53.954;9.506;2023-09-08T09:54:57;8.45;;;5.70;;
29314;SDS011;16320;53.954;9.506;2023-09-08T09:58:03;8.80;;;5.63;;
29314;SDS011;16320;53.954;9.506;2023-09-08T10:01:09;7.80;;;6.20;;
29314;SDS011;16320;53.954;9.506;2023-09-08T10:04:15;9.80;;;6.47;;
29314;SDS011;16320;53.954;9.506;2023-09-08T10:07:19;7.32;;;5.97;;
29314;SDS011;16320;53.954;9.506;2023-09-08T10:10:27;14.07;;;6.40;;
29314;SDS011;16320;53.954;9.506;2023-09-08T10:13:38;6.47;;;5.22;;
29314;SDS011;16320;53.954;9.506;2023-09-08T10:16:47;9.20;;;5.80;;
29314;SDS011;16320;53.954;9.506;2023-09-08T10:19:59;9.95;;;6.10;;
29314;SDS011;16320;53.954;9.506;2023-09-08T10:26:43;8.23;;;6.38;;
29314;SDS011;16320;53.954;9.506;2023-09-08T10:29:50;11.60;;;5.32;;
29314;SDS011;16320;53.954;9.506;2023-09-08T10:32:56;9.57;;;6.35;;
29314;SDS011;16320;53.954;9.506;2023-09-08T10:36:02;8.05;;;6.25;;
29314;SDS011;16320;53.954;9.506;2023-09-08T10:39:26;8.68;;;5.85;;
29314;SDS011;16320;53.954;9.506;2023-09-08T10:42:34;8.38;;;5.90;;
29314;SDS011;16320;53.954;9.506;2023-09-08T10:45:44;9.85;;;6.07;;
29314;SDS011;16320;53.954;9.506;2023-09-08T10:48:53;8.18;;;5.50;;
29314;SDS011;16320;53.954;9.506;2023-09-08T10:52:09;9.80;;;6.38;;
29314;SDS011;16320;53.954;9.506;2023-09-08T10:55:16;9.75;;;5.57;;
29314;SDS011;16320;53.954;9.506;2023-09-08T10:58:21;6.45;;;5.38;;
29314;SDS011;16320;53.954;9.506;2023-09-08T11:01:38;8.75;;;6.15;;
29314;SDS011;16320;53.954;9.506;2023-09-08T11:04:42;13.27;;;6.00;;
29314;SDS011;16320;53.954;9.506;2023-09-08T11:07:48;8.32;;;5.57;;
29314;SDS011;16320;53.954;9.506;2023-09-08T11:10:59;7.60;;;5.47;;
29314;SDS011;16320;53.954;9.506;2023-09-08T11:14:04;7.20;;;5.20;;
29314;SDS011;16320;53.954;9.506;2023-09-08T11:17:08;6.68;;;5.63;;
29314;SDS011;16320;53.954;9.506;2023-09-08T11:20:13;9.77;;;5.15;;
29314;SDS011;16320;53.954;9.506;2023-09-08T11:23:17;7.65;;;5.95;;
29314;SDS011;16320;53.954;9.506;2023-09-08T11:26:22;8.25;;;5.30;;
29314;SDS011;16320;53.954;9.506;2023-09-08T11:29:28;6.03;;;4.78;;
29314;SDS011;16320;53.954;9.506;2023-09-08T11:32:33;8.38;;;4.95;;
29314;SDS011;16320;53.954;9.506;2023-09-08T11:35:39;5.25;;;4.75;;
29314;SDS011;16320;53.954;9.506;2023-09-08T11:38:44;9.00;;;5.72;;
29314;SDS011;16320;53.954;9.506;2023-09-08T11:41:48;7.13;;;5.38;;
29314;SDS011;16320;53.954;9.506;2023-09-08T11:44:53;16.63;;;5.50;;
29314;SDS011;16320;53.954;9.506;2023-09-08T11:48:01;9.75;;;5.22;;
29314;SDS011;16320;53.954;9.506;2023-09-08T11:51:07;6.70;;;5.55;;
29314;SDS011;16320;53.954;9.506;2023-09-08T11:54:12;8.05;;;5.50;;
29314;SDS011;16320;53.954;9.506;2023-09-08T11:57:17;6.32;;;5.05;;
29314;SDS011;16320;53.954;9.506;2023-09-08T12:00:22;8.65;;;5.35;;
29314;SDS011;16320;53.954;9.506;2023-09-08T12:03:29;5.93;;;4.82;;
29314;SDS011;16320;53.954;9.506;2023-09-08T12:06:34;10.88;;;4.80;;
29314;SDS011;16320;53.954;9.506;2023-09-08T12:09:38;9.05;;;4.75;;
29314;SDS011;16320;53.954;9.506;2023-09-08T12:12:47;7.43;;;4.45;;
29314;SDS011;16320;53.954;9.506;2023-09-08T12:15:58;8.40;;;4.90;;
29314;SDS011;16320;53.954;9.506;2023-09-08T12:19:02;8.02;;;5.30;;
29314;SDS011;16320;53.954;9.506;2023-09-08T12:22:07;7.28;;;5.50;;
29314;SDS011;16320;53.954;9.506;2023-09-08T12:25:13;12.25;;;5.30;;
29314;SDS011;16320;53.954;9.506;2023-09-08T12:28:18;6.97;;;4.72;;
29314;SDS011;16320;53.954;9.506;2023-09-08T12:31:24;6.68;;;4.53;;
29314;SDS011;16320;53.954;9.506;2023-09-08T12:34:29;7.30;;;4.43;;
29314;SDS011;16320;53.954;9.506;2023-09-08T12:37:34;8.98;;;5.13;;
29314;SDS011;16320;53.954;9.506;2023-09-08T12:40:39;6.13;;;4.55;;
29314;SDS011;16320;53.954;9.506;2023-09-08T12:43:45;10.98;;;4.95;;
29314;SDS011;16320;53.954;9.506;2023-09-08T12:46:50;7.18;;;4.75;;
29314;SDS011;16320;53.954;9.506;2023-09-08T12:49:54;6.35;;;4.93;;
29314;SDS011;16320;53.954;9.506;2023-09-08T12:53:00;8.25;;;5.05;;
29314;SDS011;16320;53.954;9.506;2023-09-08T12:56:04;10.98;;;4.93;;
29314;SDS011;16320;53.954;9.506;2023-09-08T12:59:08;9.00;;;5.00;;
29314;SDS011;16320;53.954;9.506;2023-09-08T13:02:13;6.40;;;4.55;;
29314;SDS011;16320;53.954;9.506;2023-09-08T13:05:17;7.60;;;4.47;;
29314;SDS011;16320;53.954;9.506;2023-09-08T13:08:22;12.57;;;5.18;;
29314;SDS011;16320;53.954;9.506;2023-09-08T13:11:26;8.88;;;4.22;;
29314;SDS011;16320;53.954;9.506;2023-09-08T13:14:31;7.35;;;5.40;;
29314;SDS011;16320;53.954;9.506;2023-09-08T13:17:36;10.00;;;4.95;;
29314;SDS011;16320;53.954;9.506;2023-09-08T13:20:41;8.95;;;5.40;;
29314;SDS011;16320;53.954;9.506;2023-09-08T13:23:45;13.30;;;5.95;;
29314;SDS011;16320;53.954;9.506;2023-09-08T13:26:49;11.07;;;4.75;;
29314;SDS011;16320;53.954;9.506;2023-09-08T13:29:54;8.27;;;4.72;;
29314;SDS011;16320;53.954;9.506;2023-09-08T13:33:11;6.03;;;4.38;;
29314;SDS011;16320;53.954;9.506;2023-09-08T13:36:15;7.72;;;4.65;;
29314;SDS011;16320;53.954;9.506;2023-09-08T13:39:20;9.07;;;5.13;;
29314;SDS011;16320;53.954;9.506;2023-09-08T13:42:24;6.53;;;4.93;;
29314;SDS011;16320;53.954;9.506;2023-09-08T13:45:29;7.93;;;4.72;;
29314;SDS011;16320;53.954;9.506;2023-09-08T13:48:33;6.78;;;4.78;;
29314;SDS011;16320;53.954;9.506;2023-09-08T13:51:39;8.48;;;4.60;;
29314;SDS011;16320;53.954;9.506;2023-09-08T13:54:45;9.40;;;4.78;;
29314;SDS011;16320;53.954;9.506;2023-09-08T13:58:01;7.18;;;5.00;;
29314;SDS011;16320;53.954;9.506;2023-09-08T14:01:07;7.28;;;4.60;;
29314;SDS011;16320;53.954;9.506;2023-09-08T14:04:15;8.57;;;4.70;;
29314;SDS011;16320;53.954;9.506;2023-09-08T14:07:21;12.10;;;4.88;;
29314;SDS011;16320;53.954;9.506;2023-09-08T14:10:35;6.57;;;5.18;;
29314;SDS011;16320;53.954;9.506;2023-09-08T14:13:53;8.93;;;5.05;;
29314;SDS011;16320;53.954;9.506;2023-09-08T14:16:58;9.07;;;5.85;;
29314;SDS011;16320;53.954;9.506;2023-09-08T14:20:03;9.07;;;5.00;;
29314;SDS011;16320;53.954;9.506;2023-09-08T14:23:09;13.00;;;5.47;;
29314;SDS011;16320;53.954;9.506;2023-09-08T14:26:15;10.80;;;4.88;;
29314;SDS011;16320;53.954;9.506;2023-09-08T14:29:21;9.02;;;5.22;;
29314;SDS011;16320;53.954;9.506;2023-09-08T14:32:26;8.75;;;4.93;;
29314;SDS011;16320;53.954;9.506;2023-09-08T14:35:31;10.27;;;5.70;;
29314;SDS011;16320;53.954;9.506;2023-09-08T14:38:35;8.32;;;4.40;;
29314;SDS011;16320;53.954;9.506;2023-09-08T14:41:39;8.45;;;4.68;;
29314;SDS011;16320;53.954;9.506;2023-09-08T14:44:44;8.65;;;5.13;;
29314;SDS011;16320;53.954;9.506;2023-09-08T14:47:48;8.27;;;5.35;;
29314;SDS011;16320;53.954;9.506;2023-09-08T14:50:52;8.10;;;4.70;;
29314;SDS011;16320;53.954;9.506;2023-09-08T14:53:58;8.82;;;4.85;;
29314;SDS011;16320;53.954;9.506;2023-09-08T14:57:03;5.53;;;4.63;;
29314;SDS011;16320;53.954;9.506;2023-09-08T15:00:08;5.93;;;5.00;;
29314;SDS011;16320;53.954;9.506;2023-09-08T15:03:13;9.77;;;5.35;;
29314;SDS011;16320;53.954;9.506;2023-09-08T15:06:18;7.10;;;5.22;;
29314;SDS011;16320;53.954;9.506;2023-09-08T15:09:22;7.90;;;5.03;;
29314;SDS011;16320;53.954;9.506;2023-09-08T15:12:27;5.55;;;4.70;;
29314;SDS011;16320;53.954;9.506;2023-09-08T15:15:31;7.43;;;5.65;;
29314;SDS011;16320;53.954;9.506;2023-09-08T15:18:35;9.40;;;5.70;;
29314;SDS011;16320;53.954;9.506;2023-09-08T15:21:40;6.55;;;5.22;;
29314;SDS011;16320;53.954;9.506;2023-09-08T15:24:44;7.75;;;5.38;;
29314;SDS011;16320;53.954;9.506;2023-09-08T15:27:49;5.88;;;5.00;;
29314;SDS011;16320;53.954;9.506;2023-09-08T15:30:54;7.05;;;5.00;;
29314;SDS011;16320;53.954;9.506;2023-09-08T15:33:59;9.02;;;5.20;;
29314;SDS011;16320;53.954;9.506;2023-09-08T15:37:03;7.75;;;5.22;;
29314;SDS011;16320;53.954;9.506;2023-09-08T15:40:08;8.95;;;5.60;;
29314;SDS011;16320;53.954;9.506;2023-09-08T15:43:18;26.30;;;6.72;;
29314;SDS011;16320;53.954;9.506;2023-09-08T15:46:22;8.38;;;5.45;;
29314;SDS011;16320;53.954;9.506;2023-09-08T15:49:27;6.80;;;5.80;;
29314;SDS011;16320;53.954;9.506;2023-09-08T15:52:31;6.80;;;5.55;;
29314;SDS011;16320;53.954;9.506;2023-09-08T15:55:36;9.50;;;5.47;;
29314;SDS011;16320;53.954;9.506;2023-09-08T15:58:40;8.50;;;5.85;;
29314;SDS011;16320;53.954;9.506;2023-09-08T16:01:45;5.90;;;5.30;;
29314;SDS011;16320;53.954;9.506;2023-09-08T16:04:50;11.95;;;5.32;;
29314;SDS011;16320;53.954;9.506;2023-09-08T16:07:55;7.53;;;5.07;;
29314;SDS011;16320;53.954;9.506;2023-09-08T16:11:00;8.82;;;5.63;;
29314;SDS011;16320;53.954;9.506;2023-09-08T16:14:05;9.63;;;4.63;;
29314;SDS011;16320;53.954;9.506;2023-09-08T16:17:09;8.50;;;5.32;;
29314;SDS011;16320;53.954;9.506;2023-09-08T16:20:13;10.05;;;5.38;;
29314;SDS011;16320;53.954;9.506;2023-09-08T16:23:18;10.43;;;5.68;;
29314;SDS011;16320;53.954;9.506;2023-09-08T16:26:22;6.97;;;5.40;;
29314;SDS011;16320;53.954;9.506;2023-09-08T16:29:27;8.32;;;5.68;;
29314;SDS011;16320;53.954;9.506;2023-09-08T16:32:32;5.95;;;5.25;;
29314;SDS011;16320;53.954;9.506;2023-09-08T16:35:37;10.52;;;5.53;;
29314;SDS011;16320;53.954;9.506;2023-09-08T16:38:44;7.10;;;5.55;;
29314;SDS011;16320;53.954;9.506;2023-09-08T16:41:48;8.02;;;5.35;;
29314;SDS011;16320;53.954;9.506;2023-09-08T16:44:53;6.22;;;5.15;;
29314;SDS011;16320;53.954;9.506;2023-09-08T16:47:58;11.68;;;5.30;;
29314;SDS011;16320;53.954;9.506;2023-09-08T16:51:03;8.18;;;5.38;;
29314;SDS011;16320;53.954;9.506;2023-09-08T16:54:07;9.23;;;5.70;;
29314;SDS011;16320;53.954;9.506;2023-09-08T16:57:12;8.43;;;5.85;;
29314;SDS011;16320;53.954;9.506;2023-09-08T17:00:18;6.43;;;5.65;;
29314;SDS011;16320;53.954;9.506;2023-09-08T17:03:22;5.78;;;5.13;;
29314;SDS011;16320;53.954;9.506;2023-09-08T17:06:27;10.05;;;5.97;;
29314;SDS011;16320;53.954;9.506;2023-09-08T17:09:32;7.55;;;5.85;;
29314;SDS011;16320;53.954;9.506;2023-09-08T17:12:36;7.53;;;5.80;;
29314;SDS011;16320;53.954;9.506;2023-09-08T17:15:40;7.47;;;5.63;;
29314;SDS011;16320;53.954;9.506;2023-09-08T17:18:44;6.55;;;5.50;;
29314;SDS011;16320;53.954;9.506;2023-09-08T17:21:49;6.70;;;5.32;;
29314;SDS011;16320;53.954;9.506;2023-09-08T17:24:54;8.48;;;5.57;;
29314;SDS011;16320;53.954;9.506;2023-09-08T17:27:59;6.97;;;5.70;;
29314;SDS011;16320;53.954;9.506;2023-09-08T17:31:03;6.82;;;5.40;;
29314;SDS011;16320;53.954;9.506;2023-09-08T17:34:13;23.35;;;6.25;;
29314;SDS011;16320;53.954;9.506;2023-09-08T17:37:25;12.30;;;6.53;;
29314;SDS011;16320;53.954;9.506;2023-09-08T17:40:30;8.43;;;5.82;;
29314;SDS011;16320;53.954;9.506;2023-09-08T17:43:37;7.68;;;5.35;;
29314;SDS011;16320;53.954;9.506;2023-09-08T17:46:42;8.98;;;5.18;;
29314;SDS011;16320;53.954;9.506;2023-09-08T17:49:47;6.93;;;5.32;;
29314;SDS011;16320;53.954;9.506;2023-09-08T17:52:51;9.90;;;5.93;;
29314;SDS011;16320;53.954;9.506;2023-09-08T17:55:56;8.95;;;5.57;;
29314;SDS011;16320;53.954;9.506;2023-09-08T17:59:00;8.93;;;5.10;;
29314;SDS011;16320;53.954;9.506;2023-09-08T18:02:04;10.85;;;5.20;;
29314;SDS011;16320;53.954;9.506;2023-09-08T18:05:09;6.97;;;4.63;;
29314;SDS011;16320;53.954;9.506;2023-09-08T18:08:14;6.57;;;5.40;;
29314;SDS011;16320;53.954;9.506;2023-09-08T18:11:18;8.88;;;6.07;;
29314;SDS011;16320;53.954;9.506;2023-09-08T18:14:25;12.30;;;5.88;;
29314;SDS011;16320;53.954;9.506;2023-09-08T18:17:29;12.23;;;5.43;;
29314;SDS011;16320;53.954;9.506;2023-09-08T18:20:35;9.05;;;5.05;;
29314;SDS011;16320;53.954;9.506;2023-09-08T18:23:40;9.32;;;5.47;;
29314;SDS011;16320;53.954;9.506;2023-09-08T18:26:45;9.63;;;6.13;;
29314;SDS011;16320;53.954;9.506;2023-09-08T18:29:49;8.13;;;5.90;;
29314;SDS011;16320;53.954;9.506;2023-09-08T18:32:54;8.48;;;5.22;;
29314;SDS011;16320;53.954;9.506;2023-09-08T18:35:58;9.20;;;5.45;;
29314;SDS011;16320;53.954;9.506;2023-09-08T18:39:04;9.18;;;5.78;;
29314;SDS011;16320;53.954;9.506;2023-09-08T18:42:08;8.50;;;5.65;;
29314;SDS011;16320;53.954;9.506;2023-09-08T18:45:13;6.55;;;5.15;;